Startpagina
METAR-TAF:

METAR-TAF

Vliegvelden :

Puerto Limón, Costa Rica

breedte: 10-00N, lengte: 083-03W, hoogte: 5 m

Actueel weer

Dit bericht is 9 uur en het 38 minuten geleden gemaakt, om 22:00 UTC
Wind 8 kt uit het noordnoordoosten
Temperatuur 30°C
Vochtigheid 70%
Druk 1010 hPa
Zicht 10 km of meer
geen wolken onder 1500 m en geen cumulonimbus

METAR: MRLM 172200Z 03008KT CAVOK 30/24 A2983

Tijdstip: 01:38 (07:38 UTC)

Verwachting

Dit bericht is 2 uur en het 38 minuten geleden gemaakt, om 05:00 UTC
Verwachting geldig van 18 om 06 UTC tot 19 om 06 UTC
Wind 3 kt uit het westen
Zicht 10 km of meer
Weinig wolken op 3000 ft
Verspreide wolken op 12000 ft
Wijzigt naar
van 18 om 14 UTC tot 18 om 16 UTC
Wind 7 kt uit het noordoosten
Wijzigt naar
van 19 om 00 UTC tot 19 om 02 UTC
Wind 3 kt uit het westen

TAF: MRLM 180500Z 1806/1906 27003KT 9999 FEW030 SCT120 TX30/1817Z TN22/1812Z BECMG 1814/1816 04007KT BECMG 1900/1902 26003KT

Waarnemingen en weersverwachtingen van meer dan 4000 vliegvelden (METAR en TAF).

De beschikbare stations zijn de gele en rode punten op de kaart.

Ga met uw muis naar het station om de naam te zien.

Klik dan om waarnemingen en weersverwachtingen te zien.

kaart wijzigen: klik op de groene knoppen met een zwart kruis om in te zoomen, op de groene knop met een streepje om uit te zoomen of op de groene pijlen voor aangrenzende kaarten.


METAR-TAF: